sensor_id;sensor_type;location;lat;lon;timestamp;P1;durP1;ratioP1;P2;durP2;ratioP2
22213;SDS011;11276;43.566;27.824;2022-09-09T00:07:47;5.20;;;1.80;;
22213;SDS011;11276;43.566;27.824;2022-09-09T00:10:33;6.00;;;1.80;;
22213;SDS011;11276;43.566;27.824;2022-09-09T00:18:50;3.37;;;1.90;;
22213;SDS011;11276;43.566;27.824;2022-09-09T00:21:32;2.57;;;1.73;;
22213;SDS011;11276;43.566;27.824;2022-09-09T00:24:38;2.33;;;1.93;;
22213;SDS011;11276;43.566;27.824;2022-09-09T00:27:11;5.60;;;1.60;;
22213;SDS011;11276;43.566;27.824;2022-09-09T00:29:47;1.87;;;1.60;;
22213;SDS011;11276;43.566;27.824;2022-09-09T00:32:20;6.87;;;2.00;;
22213;SDS011;11276;43.566;27.824;2022-09-09T00:35:36;3.90;;;1.93;;
22213;SDS011;11276;43.566;27.824;2022-09-09T00:37:38;6.10;;;2.10;;
22213;SDS011;11276;43.566;27.824;2022-09-09T00:40:16;3.00;;;1.70;;
22213;SDS011;11276;43.566;27.824;2022-09-09T00:42:51;3.77;;;2.00;;
22213;SDS011;11276;43.566;27.824;2022-09-09T00:48:28;2.40;;;1.80;;
22213;SDS011;11276;43.566;27.824;2022-09-09T00:51:24;2.50;;;1.53;;
22213;SDS011;11276;43.566;27.824;2022-09-09T00:56:56;4.83;;;2.17;;
22213;SDS011;11276;43.566;27.824;2022-09-09T00:59:46;5.00;;;2.20;;
22213;SDS011;11276;43.566;27.824;2022-09-09T01:11:57;4.77;;;1.93;;
22213;SDS011;11276;43.566;27.824;2022-09-09T01:17:24;3.47;;;2.30;;
22213;SDS011;11276;43.566;27.824;2022-09-09T01:28:37;2.70;;;1.97;;
22213;SDS011;11276;43.566;27.824;2022-09-09T01:31:05;1.70;;;1.53;;
22213;SDS011;11276;43.566;27.824;2022-09-09T01:33:35;4.20;;;2.13;;
22213;SDS011;11276;43.566;27.824;2022-09-09T01:38:31;3.10;;;2.13;;
22213;SDS011;11276;43.566;27.824;2022-09-09T01:40:59;9.90;;;2.00;;
22213;SDS011;11276;43.566;27.824;2022-09-09T01:43:27;1.97;;;1.67;;
22213;SDS011;11276;43.566;27.824;2022-09-09T01:45:55;2.27;;;2.00;;
22213;SDS011;11276;43.566;27.824;2022-09-09T01:48:25;2.67;;;2.00;;
22213;SDS011;11276;43.566;27.824;2022-09-09T01:50:53;6.17;;;2.50;;
22213;SDS011;11276;43.566;27.824;2022-09-09T01:53:20;2.93;;;2.07;;
22213;SDS011;11276;43.566;27.824;2022-09-09T01:58:37;2.13;;;1.60;;
22213;SDS011;11276;43.566;27.824;2022-09-09T02:06:58;3.23;;;1.80;;
22213;SDS011;11276;43.566;27.824;2022-09-09T02:09:27;2.70;;;2.10;;
22213;SDS011;11276;43.566;27.824;2022-09-09T02:12:07;3.30;;;1.83;;
22213;SDS011;11276;43.566;27.824;2022-09-09T02:14:41;3.67;;;1.83;;
22213;SDS011;11276;43.566;27.824;2022-09-09T02:17:14;5.70;;;2.30;;
22213;SDS011;11276;43.566;27.824;2022-09-09T02:19:45;2.93;;;1.87;;
22213;SDS011;11276;43.566;27.824;2022-09-09T02:22:16;7.90;;;2.03;;
22213;SDS011;11276;43.566;27.824;2022-09-09T02:24:47;6.10;;;1.70;;
22213;SDS011;11276;43.566;27.824;2022-09-09T02:27:16;2.70;;;2.13;;
22213;SDS011;11276;43.566;27.824;2022-09-09T02:29:45;2.93;;;2.10;;
22213;SDS011;11276;43.566;27.824;2022-09-09T02:32:17;3.30;;;1.80;;
22213;SDS011;11276;43.566;27.824;2022-09-09T02:34:53;2.80;;;2.30;;
22213;SDS011;11276;43.566;27.824;2022-09-09T02:37:25;3.40;;;1.87;;
22213;SDS011;11276;43.566;27.824;2022-09-09T02:39:56;4.17;;;1.97;;
22213;SDS011;11276;43.566;27.824;2022-09-09T02:42:23;3.00;;;1.90;;
22213;SDS011;11276;43.566;27.824;2022-09-09T02:44:50;3.67;;;2.03;;
22213;SDS011;11276;43.566;27.824;2022-09-09T02:58:17;2.73;;;1.90;;
22213;SDS011;11276;43.566;27.824;2022-09-09T03:00:45;7.10;;;2.33;;
22213;SDS011;11276;43.566;27.824;2022-09-09T03:03:14;3.53;;;2.17;;
22213;SDS011;11276;43.566;27.824;2022-09-09T03:05:43;1.77;;;1.67;;
22213;SDS011;11276;43.566;27.824;2022-09-09T03:08:11;2.90;;;2.00;;
22213;SDS011;11276;43.566;27.824;2022-09-09T03:10:39;2.73;;;1.93;;
22213;SDS011;11276;43.566;27.824;2022-09-09T03:13:06;5.03;;;2.07;;
22213;SDS011;11276;43.566;27.824;2022-09-09T03:15:34;2.87;;;1.90;;
22213;SDS011;11276;43.566;27.824;2022-09-09T03:18:01;4.80;;;2.23;;
22213;SDS011;11276;43.566;27.824;2022-09-09T03:20:28;2.37;;;1.80;;
22213;SDS011;11276;43.566;27.824;2022-09-09T03:22:56;2.80;;;2.00;;
22213;SDS011;11276;43.566;27.824;2022-09-09T03:25:23;9.23;;;2.37;;
22213;SDS011;11276;43.566;27.824;2022-09-09T03:27:50;3.67;;;1.73;;
22213;SDS011;11276;43.566;27.824;2022-09-09T03:30:24;4.43;;;2.30;;
22213;SDS011;11276;43.566;27.824;2022-09-09T03:32:52;3.57;;;1.90;;
22213;SDS011;11276;43.566;27.824;2022-09-09T03:35:19;5.10;;;1.93;;
22213;SDS011;11276;43.566;27.824;2022-09-09T03:37:46;2.60;;;1.67;;
22213;SDS011;11276;43.566;27.824;2022-09-09T03:40:13;4.10;;;2.20;;
22213;SDS011;11276;43.566;27.824;2022-09-09T03:42:40;7.80;;;2.27;;
22213;SDS011;11276;43.566;27.824;2022-09-09T03:45:07;4.67;;;2.23;;
22213;SDS011;11276;43.566;27.824;2022-09-09T03:47:36;5.97;;;2.23;;
22213;SDS011;11276;43.566;27.824;2022-09-09T03:50:04;5.53;;;2.23;;
22213;SDS011;11276;43.566;27.824;2022-09-09T03:52:38;4.50;;;2.40;;
22213;SDS011;11276;43.566;27.824;2022-09-09T03:55:07;5.63;;;2.23;;
22213;SDS011;11276;43.566;27.824;2022-09-09T03:57:34;4.03;;;2.60;;
22213;SDS011;11276;43.566;27.824;2022-09-09T04:00:06;3.33;;;2.47;;
22213;SDS011;11276;43.566;27.824;2022-09-09T04:02:34;5.13;;;2.40;;
22213;SDS011;11276;43.566;27.824;2022-09-09T04:05:01;6.93;;;2.80;;
22213;SDS011;11276;43.566;27.824;2022-09-09T04:07:27;5.33;;;2.63;;
22213;SDS011;11276;43.566;27.824;2022-09-09T04:09:54;8.63;;;1.90;;
22213;SDS011;11276;43.566;27.824;2022-09-09T04:12:21;6.20;;;2.10;;
22213;SDS011;11276;43.566;27.824;2022-09-09T04:14:48;4.20;;;2.20;;
22213;SDS011;11276;43.566;27.824;2022-09-09T04:17:15;6.97;;;2.67;;
22213;SDS011;11276;43.566;27.824;2022-09-09T04:19:42;4.20;;;2.17;;
22213;SDS011;11276;43.566;27.824;2022-09-09T04:22:09;5.70;;;1.90;;
22213;SDS011;11276;43.566;27.824;2022-09-09T04:24:35;3.23;;;2.07;;
22213;SDS011;11276;43.566;27.824;2022-09-09T04:27:02;4.27;;;1.83;;
22213;SDS011;11276;43.566;27.824;2022-09-09T04:29:29;8.13;;;2.37;;
22213;SDS011;11276;43.566;27.824;2022-09-09T04:31:56;2.60;;;2.40;;
22213;SDS011;11276;43.566;27.824;2022-09-09T04:34:22;7.67;;;1.97;;
22213;SDS011;11276;43.566;27.824;2022-09-09T04:36:49;4.70;;;2.60;;
22213;SDS011;11276;43.566;27.824;2022-09-09T04:39:18;5.97;;;1.83;;
22213;SDS011;11276;43.566;27.824;2022-09-09T04:41:45;2.10;;;1.83;;
22213;SDS011;11276;43.566;27.824;2022-09-09T04:44:13;3.60;;;1.67;;
22213;SDS011;11276;43.566;27.824;2022-09-09T04:46:40;5.30;;;2.20;;
22213;SDS011;11276;43.566;27.824;2022-09-09T04:49:07;19.60;;;2.20;;
22213;SDS011;11276;43.566;27.824;2022-09-09T04:51:36;4.90;;;1.90;;
22213;SDS011;11276;43.566;27.824;2022-09-09T04:54:02;6.90;;;1.90;;
22213;SDS011;11276;43.566;27.824;2022-09-09T04:56:29;7.83;;;1.90;;
22213;SDS011;11276;43.566;27.824;2022-09-09T04:58:55;3.30;;;2.03;;
22213;SDS011;11276;43.566;27.824;2022-09-09T05:01:22;6.93;;;2.60;;
22213;SDS011;11276;43.566;27.824;2022-09-09T05:03:50;3.40;;;1.90;;
22213;SDS011;11276;43.566;27.824;2022-09-09T05:06:19;3.63;;;1.90;;
22213;SDS011;11276;43.566;27.824;2022-09-09T05:08:47;3.70;;;2.20;;
22213;SDS011;11276;43.566;27.824;2022-09-09T05:11:19;7.53;;;2.07;;
22213;SDS011;11276;43.566;27.824;2022-09-09T05:13:48;5.17;;;2.30;;
22213;SDS011;11276;43.566;27.824;2022-09-09T05:16:16;4.23;;;1.93;;
22213;SDS011;11276;43.566;27.824;2022-09-09T05:18:44;2.83;;;1.60;;
22213;SDS011;11276;43.566;27.824;2022-09-09T05:21:12;2.20;;;1.63;;
22213;SDS011;11276;43.566;27.824;2022-09-09T05:23:40;8.43;;;2.50;;
22213;SDS011;11276;43.566;27.824;2022-09-09T05:26:08;4.43;;;1.83;;
22213;SDS011;11276;43.566;27.824;2022-09-09T05:28:41;7.10;;;2.10;;
22213;SDS011;11276;43.566;27.824;2022-09-09T05:31:09;4.10;;;2.00;;
22213;SDS011;11276;43.566;27.824;2022-09-09T05:33:39;4.00;;;2.10;;
22213;SDS011;11276;43.566;27.824;2022-09-09T05:36:08;2.90;;;2.10;;
22213;SDS011;11276;43.566;27.824;2022-09-09T05:38:43;2.53;;;1.60;;
22213;SDS011;11276;43.566;27.824;2022-09-09T05:41:10;8.20;;;2.23;;
22213;SDS011;11276;43.566;27.824;2022-09-09T05:43:38;3.60;;;1.90;;
22213;SDS011;11276;43.566;27.824;2022-09-09T05:46:09;4.33;;;1.70;;
22213;SDS011;11276;43.566;27.824;2022-09-09T05:48:38;6.87;;;1.60;;
22213;SDS011;11276;43.566;27.824;2022-09-09T05:51:07;2.43;;;1.97;;
22213;SDS011;11276;43.566;27.824;2022-09-09T05:53:38;4.40;;;1.70;;
22213;SDS011;11276;43.566;27.824;2022-09-09T05:56:06;3.20;;;1.70;;
22213;SDS011;11276;43.566;27.824;2022-09-09T05:58:37;2.60;;;1.60;;
22213;SDS011;11276;43.566;27.824;2022-09-09T06:01:07;2.40;;;1.43;;
22213;SDS011;11276;43.566;27.824;2022-09-09T06:03:40;5.07;;;1.50;;
22213;SDS011;11276;43.566;27.824;2022-09-09T06:06:09;4.37;;;2.03;;
22213;SDS011;11276;43.566;27.824;2022-09-09T06:08:38;10.90;;;1.60;;
22213;SDS011;11276;43.566;27.824;2022-09-09T06:11:07;8.03;;;1.67;;
22213;SDS011;11276;43.566;27.824;2022-09-09T06:13:40;2.20;;;1.70;;
22213;SDS011;11276;43.566;27.824;2022-09-09T06:16:10;3.03;;;1.87;;
22213;SDS011;11276;43.566;27.824;2022-09-09T06:18:39;4.70;;;1.80;;
22213;SDS011;11276;43.566;27.824;2022-09-09T06:21:08;3.00;;;1.90;;
22213;SDS011;11276;43.566;27.824;2022-09-09T06:23:41;4.30;;;1.80;;
22213;SDS011;11276;43.566;27.824;2022-09-09T06:28:38;5.63;;;1.90;;
22213;SDS011;11276;43.566;27.824;2022-09-09T06:31:06;5.20;;;1.90;;
22213;SDS011;11276;43.566;27.824;2022-09-09T06:33:35;4.00;;;2.13;;
22213;SDS011;11276;43.566;27.824;2022-09-09T06:36:05;11.13;;;1.90;;
22213;SDS011;11276;43.566;27.824;2022-09-09T06:38:32;3.00;;;1.57;;
22213;SDS011;11276;43.566;27.824;2022-09-09T06:40:59;5.90;;;1.60;;
22213;SDS011;11276;43.566;27.824;2022-09-09T06:43:26;4.40;;;1.60;;
22213;SDS011;11276;43.566;27.824;2022-09-09T06:46:12;6.40;;;1.70;;
22213;SDS011;11276;43.566;27.824;2022-09-09T06:48:40;9.47;;;1.90;;
22213;SDS011;11276;43.566;27.824;2022-09-09T06:51:09;6.83;;;1.73;;
22213;SDS011;11276;43.566;27.824;2022-09-09T06:53:38;14.30;;;2.20;;
22213;SDS011;11276;43.566;27.824;2022-09-09T06:58:40;4.90;;;1.50;;
22213;SDS011;11276;43.566;27.824;2022-09-09T07:01:11;4.60;;;1.93;;
22213;SDS011;11276;43.566;27.824;2022-09-09T07:03:40;3.20;;;1.80;;
22213;SDS011;11276;43.566;27.824;2022-09-09T07:06:08;2.37;;;1.53;;
22213;SDS011;11276;43.566;27.824;2022-09-09T07:08:41;18.00;;;2.43;;
22213;SDS011;11276;43.566;27.824;2022-09-09T07:11:08;7.00;;;1.93;;
22213;SDS011;11276;43.566;27.824;2022-09-09T07:13:37;1.83;;;1.70;;
22213;SDS011;11276;43.566;27.824;2022-09-09T07:16:08;2.10;;;1.60;;
22213;SDS011;11276;43.566;27.824;2022-09-09T07:18:37;1.50;;;1.40;;
22213;SDS011;11276;43.566;27.824;2022-09-09T07:21:03;4.40;;;2.23;;
22213;SDS011;11276;43.566;27.824;2022-09-09T07:23:30;2.60;;;1.80;;
22213;SDS011;11276;43.566;27.824;2022-09-09T07:25:59;1.73;;;1.57;;
22213;SDS011;11276;43.566;27.824;2022-09-09T07:28:26;3.80;;;1.27;;
22213;SDS011;11276;43.566;27.824;2022-09-09T07:30:54;3.90;;;1.70;;
22213;SDS011;11276;43.566;27.824;2022-09-09T07:33:27;2.97;;;1.60;;
22213;SDS011;11276;43.566;27.824;2022-09-09T07:36:04;3.10;;;1.43;;
22213;SDS011;11276;43.566;27.824;2022-09-09T07:38:42;5.77;;;1.30;;
22213;SDS011;11276;43.566;27.824;2022-09-09T07:41:16;2.03;;;1.30;;
22213;SDS011;11276;43.566;27.824;2022-09-09T07:43:45;2.00;;;1.30;;
22213;SDS011;11276;43.566;27.824;2022-09-09T07:46:14;2.23;;;1.30;;
22213;SDS011;11276;43.566;27.824;2022-09-09T07:48:46;6.90;;;1.90;;
22213;SDS011;11276;43.566;27.824;2022-09-09T07:51:25;1.60;;;1.50;;
22213;SDS011;11276;43.566;27.824;2022-09-09T07:53:58;4.60;;;1.57;;
22213;SDS011;11276;43.566;27.824;2022-09-09T07:56:28;7.60;;;1.47;;
22213;SDS011;11276;43.566;27.824;2022-09-09T07:58:56;5.10;;;1.40;;
22213;SDS011;11276;43.566;27.824;2022-09-09T08:01:26;3.10;;;1.60;;
22213;SDS011;11276;43.566;27.824;2022-09-09T08:03:57;2.33;;;1.40;;
22213;SDS011;11276;43.566;27.824;2022-09-09T08:06:29;1.83;;;1.20;;
22213;SDS011;11276;43.566;27.824;2022-09-09T08:08:59;5.90;;;1.60;;
22213;SDS011;11276;43.566;27.824;2022-09-09T08:11:27;2.90;;;1.60;;
22213;SDS011;11276;43.566;27.824;2022-09-09T08:13:55;1.17;;;1.07;;
22213;SDS011;11276;43.566;27.824;2022-09-09T08:16:26;3.80;;;1.60;;
22213;SDS011;11276;43.566;27.824;2022-09-09T08:18:56;2.37;;;1.30;;
22213;SDS011;11276;43.566;27.824;2022-09-09T08:21:25;6.30;;;1.63;;
22213;SDS011;11276;43.566;27.824;2022-09-09T08:23:54;7.47;;;1.60;;
22213;SDS011;11276;43.566;27.824;2022-09-09T08:26:27;1.90;;;1.33;;
22213;SDS011;11276;43.566;27.824;2022-09-09T08:28:57;7.03;;;1.50;;
22213;SDS011;11276;43.566;27.824;2022-09-09T08:31:26;4.83;;;1.70;;
22213;SDS011;11276;43.566;27.824;2022-09-09T08:33:55;1.57;;;1.47;;
22213;SDS011;11276;43.566;27.824;2022-09-09T08:36:23;4.00;;;1.97;;
22213;SDS011;11276;43.566;27.824;2022-09-09T08:38:52;4.33;;;1.60;;
22213;SDS011;11276;43.566;27.824;2022-09-09T08:55:01;1.30;;;1.20;;
22213;SDS011;11276;43.566;27.824;2022-09-09T08:57:38;1.93;;;1.47;;
22213;SDS011;11276;43.566;27.824;2022-09-09T09:00:07;4.17;;;1.70;;
22213;SDS011;11276;43.566;27.824;2022-09-09T09:10:51;4.80;;;1.70;;
22213;SDS011;11276;43.566;27.824;2022-09-09T09:16:00;1.80;;;1.40;;
22213;SDS011;11276;43.566;27.824;2022-09-09T09:18:37;3.80;;;1.40;;
22213;SDS011;11276;43.566;27.824;2022-09-09T09:21:10;3.30;;;1.63;;
22213;SDS011;11276;43.566;27.824;2022-09-09T09:26:44;1.90;;;1.63;;
22213;SDS011;11276;43.566;27.824;2022-09-09T09:29:19;1.93;;;1.20;;
22213;SDS011;11276;43.566;27.824;2022-09-09T09:31:52;2.27;;;1.40;;
22213;SDS011;11276;43.566;27.824;2022-09-09T09:34:25;1.50;;;1.40;;
22213;SDS011;11276;43.566;27.824;2022-09-09T09:36:53;1.63;;;1.50;;
22213;SDS011;11276;43.566;27.824;2022-09-09T09:39:27;1.53;;;1.33;;
22213;SDS011;11276;43.566;27.824;2022-09-09T09:42:16;3.50;;;1.30;;
22213;SDS011;11276;43.566;27.824;2022-09-09T09:44:44;1.90;;;1.43;;
22213;SDS011;11276;43.566;27.824;2022-09-09T09:47:12;3.30;;;1.53;;
22213;SDS011;11276;43.566;27.824;2022-09-09T09:49:50;1.93;;;1.30;;
22213;SDS011;11276;43.566;27.824;2022-09-09T09:52:29;6.00;;;1.40;;
22213;SDS011;11276;43.566;27.824;2022-09-09T09:54:58;3.30;;;1.30;;
22213;SDS011;11276;43.566;27.824;2022-09-09T09:57:32;4.90;;;1.80;;
22213;SDS011;11276;43.566;27.824;2022-09-09T10:00:01;3.40;;;1.40;;
22213;SDS011;11276;43.566;27.824;2022-09-09T10:02:38;8.83;;;1.40;;
22213;SDS011;11276;43.566;27.824;2022-09-09T10:05:25;2.87;;;1.70;;
22213;SDS011;11276;43.566;27.824;2022-09-09T10:10:42;3.27;;;1.47;;
22213;SDS011;11276;43.566;27.824;2022-09-09T10:21:48;2.37;;;1.60;;
22213;SDS011;11276;43.566;27.824;2022-09-09T10:30:35;2.80;;;1.90;;
22213;SDS011;11276;43.566;27.824;2022-09-09T10:36:13;12.57;;;2.00;;
22213;SDS011;11276;43.566;27.824;2022-09-09T10:39:03;9.23;;;2.00;;
22213;SDS011;11276;43.566;27.824;2022-09-09T10:57:49;7.50;;;1.57;;
22213;SDS011;11276;43.566;27.824;2022-09-09T11:03:01;3.83;;;1.37;;
22213;SDS011;11276;43.566;27.824;2022-09-09T11:08:11;4.67;;;1.60;;
22213;SDS011;11276;43.566;27.824;2022-09-09T11:13:51;7.90;;;1.80;;
22213;SDS011;11276;43.566;27.824;2022-09-09T11:19:13;2.33;;;1.67;;
22213;SDS011;11276;43.566;27.824;2022-09-09T11:21:48;4.93;;;1.30;;
22213;SDS011;11276;43.566;27.824;2022-09-09T11:24:19;9.23;;;2.30;;
22213;SDS011;11276;43.566;27.824;2022-09-09T11:26:55;3.00;;;1.50;;
22213;SDS011;11276;43.566;27.824;2022-09-09T11:29:43;3.03;;;1.47;;
22213;SDS011;11276;43.566;27.824;2022-09-09T11:40:25;2.60;;;1.43;;
22213;SDS011;11276;43.566;27.824;2022-09-09T11:45:54;2.87;;;1.53;;
22213;SDS011;11276;43.566;27.824;2022-09-09T11:48:27;7.53;;;1.70;;
22213;SDS011;11276;43.566;27.824;2022-09-09T11:50:59;3.60;;;1.60;;
22213;SDS011;11276;43.566;27.824;2022-09-09T11:53:29;3.07;;;1.47;;
22213;SDS011;11276;43.566;27.824;2022-09-09T11:58:43;1.73;;;1.40;;
22213;SDS011;11276;43.566;27.824;2022-09-09T12:01:35;1.57;;;1.30;;
22213;SDS011;11276;43.566;27.824;2022-09-09T12:04:12;2.30;;;1.60;;
22213;SDS011;11276;43.566;27.824;2022-09-09T12:06:53;2.00;;;1.40;;
22213;SDS011;11276;43.566;27.824;2022-09-09T12:09:28;1.90;;;1.30;;
22213;SDS011;11276;43.566;27.824;2022-09-09T12:12:26;3.53;;;1.50;;
22213;SDS011;11276;43.566;27.824;2022-09-09T12:15:21;3.57;;;1.60;;
22213;SDS011;11276;43.566;27.824;2022-09-09T12:20:21;4.63;;;1.43;;
22213;SDS011;11276;43.566;27.824;2022-09-09T12:28:49;2.40;;;1.53;;
22213;SDS011;11276;43.566;27.824;2022-09-09T12:31:29;3.27;;;1.60;;
22213;SDS011;11276;43.566;27.824;2022-09-09T12:34:11;4.50;;;1.60;;
22213;SDS011;11276;43.566;27.824;2022-09-09T12:36:44;2.30;;;1.73;;
22213;SDS011;11276;43.566;27.824;2022-09-09T12:39:53;9.27;;;2.00;;
22213;SDS011;11276;43.566;27.824;2022-09-09T12:42:16;11.90;;;2.00;;
22213;SDS011;11276;43.566;27.824;2022-09-09T12:44:55;3.97;;;1.37;;
22213;SDS011;11276;43.566;27.824;2022-09-09T12:49:56;10.17;;;1.30;;
22213;SDS011;11276;43.566;27.824;2022-09-09T12:52:30;3.00;;;1.60;;
22213;SDS011;11276;43.566;27.824;2022-09-09T12:55:03;3.80;;;1.60;;
22213;SDS011;11276;43.566;27.824;2022-09-09T12:57:36;4.03;;;1.63;;
22213;SDS011;11276;43.566;27.824;2022-09-09T13:00:15;2.40;;;1.60;;
22213;SDS011;11276;43.566;27.824;2022-09-09T13:03:00;1.90;;;1.40;;
22213;SDS011;11276;43.566;27.824;2022-09-09T13:05:34;3.70;;;1.50;;
22213;SDS011;11276;43.566;27.824;2022-09-09T13:08:06;1.67;;;1.50;;
22213;SDS011;11276;43.566;27.824;2022-09-09T13:10:47;5.03;;;1.57;;
22213;SDS011;11276;43.566;27.824;2022-09-09T13:13:23;2.70;;;1.30;;
22213;SDS011;11276;43.566;27.824;2022-09-09T13:15:56;2.90;;;1.40;;
22213;SDS011;11276;43.566;27.824;2022-09-09T13:18:29;1.90;;;1.70;;
22213;SDS011;11276;43.566;27.824;2022-09-09T13:20:59;2.57;;;1.30;;
22213;SDS011;11276;43.566;27.824;2022-09-09T13:23:27;2.40;;;1.30;;
22213;SDS011;11276;43.566;27.824;2022-09-09T13:26:00;1.60;;;1.23;;
22213;SDS011;11276;43.566;27.824;2022-09-09T13:28:29;3.63;;;1.40;;
22213;SDS011;11276;43.566;27.824;2022-09-09T13:31:19;3.07;;;1.37;;
22213;SDS011;11276;43.566;27.824;2022-09-09T13:34:12;2.17;;;1.57;;
22213;SDS011;11276;43.566;27.824;2022-09-09T13:37:05;1.47;;;1.30;;
22213;SDS011;11276;43.566;27.824;2022-09-09T13:39:50;1.87;;;1.20;;
22213;SDS011;11276;43.566;27.824;2022-09-09T13:42:26;1.47;;;1.30;;
22213;SDS011;11276;43.566;27.824;2022-09-09T13:44:58;1.60;;;1.50;;
22213;SDS011;11276;43.566;27.824;2022-09-09T13:47:34;1.70;;;1.50;;
22213;SDS011;11276;43.566;27.824;2022-09-09T13:50:21;3.37;;;2.10;;
22213;SDS011;11276;43.566;27.824;2022-09-09T13:52:51;3.40;;;1.50;;
22213;SDS011;11276;43.566;27.824;2022-09-09T13:55:19;2.53;;;1.30;;
22213;SDS011;11276;43.566;27.824;2022-09-09T13:57:52;3.57;;;1.67;;
22213;SDS011;11276;43.566;27.824;2022-09-09T14:00:32;5.07;;;1.50;;
22213;SDS011;11276;43.566;27.824;2022-09-09T14:03:00;3.10;;;1.63;;
22213;SDS011;11276;43.566;27.824;2022-09-09T14:05:30;2.60;;;1.20;;
22213;SDS011;11276;43.566;27.824;2022-09-09T14:07:59;7.33;;;1.77;;
22213;SDS011;11276;43.566;27.824;2022-09-09T14:10:29;4.97;;;1.43;;
22213;SDS011;11276;43.566;27.824;2022-09-09T14:12:56;5.83;;;1.50;;
22213;SDS011;11276;43.566;27.824;2022-09-09T14:15:23;5.50;;;1.50;;
22213;SDS011;11276;43.566;27.824;2022-09-09T14:17:49;3.80;;;1.93;;
22213;SDS011;11276;43.566;27.824;2022-09-09T14:20:16;5.20;;;1.83;;
22213;SDS011;11276;43.566;27.824;2022-09-09T14:22:43;2.53;;;1.50;;
22213;SDS011;11276;43.566;27.824;2022-09-09T14:25:10;4.27;;;1.90;;
22213;SDS011;11276;43.566;27.824;2022-09-09T14:27:39;8.30;;;1.60;;
22213;SDS011;11276;43.566;27.824;2022-09-09T14:30:06;8.33;;;1.70;;
22213;SDS011;11276;43.566;27.824;2022-09-09T14:32:33;6.33;;;1.70;;
22213;SDS011;11276;43.566;27.824;2022-09-09T14:35:00;10.73;;;2.43;;
22213;SDS011;11276;43.566;27.824;2022-09-09T14:37:27;6.83;;;2.43;;
22213;SDS011;11276;43.566;27.824;2022-09-09T14:39:54;2.33;;;1.73;;
22213;SDS011;11276;43.566;27.824;2022-09-09T14:42:22;4.70;;;1.53;;
22213;SDS011;11276;43.566;27.824;2022-09-09T14:44:49;1.97;;;1.50;;
22213;SDS011;11276;43.566;27.824;2022-09-09T14:47:16;5.70;;;1.50;;
22213;SDS011;11276;43.566;27.824;2022-09-09T14:49:43;1.70;;;1.20;;
22213;SDS011;11276;43.566;27.824;2022-09-09T14:52:11;2.40;;;1.87;;
22213;SDS011;11276;43.566;27.824;2022-09-09T14:54:38;34.53;;;3.00;;
22213;SDS011;11276;43.566;27.824;2022-09-09T14:57:05;3.93;;;2.10;;
22213;SDS011;11276;43.566;27.824;2022-09-09T14:59:32;3.40;;;1.57;;
22213;SDS011;11276;43.566;27.824;2022-09-09T15:01:58;2.00;;;1.60;;
22213;SDS011;11276;43.566;27.824;2022-09-09T15:04:30;2.67;;;1.67;;
22213;SDS011;11276;43.566;27.824;2022-09-09T15:06:56;5.13;;;2.13;;
22213;SDS011;11276;43.566;27.824;2022-09-09T15:09:24;5.93;;;2.27;;
22213;SDS011;11276;43.566;27.824;2022-09-09T15:11:51;5.67;;;2.33;;
22213;SDS011;11276;43.566;27.824;2022-09-09T15:14:17;3.30;;;2.23;;
22213;SDS011;11276;43.566;27.824;2022-09-09T15:16:46;5.60;;;2.57;;
22213;SDS011;11276;43.566;27.824;2022-09-09T15:19:12;4.17;;;2.40;;
22213;SDS011;11276;43.566;27.824;2022-09-09T15:21:39;3.10;;;2.33;;
22213;SDS011;11276;43.566;27.824;2022-09-09T15:24:06;5.27;;;2.03;;
22213;SDS011;11276;43.566;27.824;2022-09-09T15:26:34;8.83;;;2.87;;
22213;SDS011;11276;43.566;27.824;2022-09-09T15:29:04;4.83;;;2.70;;
22213;SDS011;11276;43.566;27.824;2022-09-09T15:31:32;5.30;;;2.77;;
22213;SDS011;11276;43.566;27.824;2022-09-09T15:33:59;4.23;;;2.73;;
22213;SDS011;11276;43.566;27.824;2022-09-09T15:36:28;4.70;;;2.90;;
22213;SDS011;11276;43.566;27.824;2022-09-09T15:39:04;2.83;;;2.20;;
22213;SDS011;11276;43.566;27.824;2022-09-09T15:41:32;4.30;;;2.20;;
22213;SDS011;11276;43.566;27.824;2022-09-09T15:43:59;3.00;;;2.17;;
22213;SDS011;11276;43.566;27.824;2022-09-09T15:51:38;2.43;;;2.23;;
22213;SDS011;11276;43.566;27.824;2022-09-09T15:54:08;3.93;;;2.00;;
22213;SDS011;11276;43.566;27.824;2022-09-09T15:56:39;5.40;;;2.70;;
22213;SDS011;11276;43.566;27.824;2022-09-09T15:59:07;4.00;;;3.10;;
22213;SDS011;11276;43.566;27.824;2022-09-09T16:01:33;5.90;;;2.80;;
22213;SDS011;11276;43.566;27.824;2022-09-09T16:04:01;5.73;;;3.13;;
22213;SDS011;11276;43.566;27.824;2022-09-09T16:06:28;4.80;;;2.47;;
22213;SDS011;11276;43.566;27.824;2022-09-09T16:08:56;5.00;;;2.60;;
22213;SDS011;11276;43.566;27.824;2022-09-09T16:13:53;14.17;;;2.73;;
22213;SDS011;11276;43.566;27.824;2022-09-09T16:16:24;6.20;;;3.30;;
22213;SDS011;11276;43.566;27.824;2022-09-09T16:18:54;4.50;;;3.07;;
22213;SDS011;11276;43.566;27.824;2022-09-09T16:21:30;4.97;;;3.17;;
22213;SDS011;11276;43.566;27.824;2022-09-09T16:23:59;5.00;;;2.87;;
22213;SDS011;11276;43.566;27.824;2022-09-09T16:26:27;5.43;;;3.10;;
22213;SDS011;11276;43.566;27.824;2022-09-09T16:28:56;5.33;;;2.90;;
22213;SDS011;11276;43.566;27.824;2022-09-09T16:31:25;9.50;;;3.20;;
22213;SDS011;11276;43.566;27.824;2022-09-09T16:33:53;6.43;;;3.00;;
22213;SDS011;11276;43.566;27.824;2022-09-09T16:36:23;8.93;;;3.60;;
22213;SDS011;11276;43.566;27.824;2022-09-09T16:38:55;5.50;;;3.37;;
22213;SDS011;11276;43.566;27.824;2022-09-09T16:41:24;5.53;;;2.77;;
22213;SDS011;11276;43.566;27.824;2022-09-09T16:43:53;4.97;;;2.97;;
22213;SDS011;11276;43.566;27.824;2022-09-09T16:46:21;4.90;;;3.50;;
22213;SDS011;11276;43.566;27.824;2022-09-09T16:48:50;4.17;;;3.47;;
22213;SDS011;11276;43.566;27.824;2022-09-09T16:51:18;4.83;;;3.00;;
22213;SDS011;11276;43.566;27.824;2022-09-09T16:53:50;4.00;;;3.50;;
22213;SDS011;11276;43.566;27.824;2022-09-09T16:56:19;5.30;;;3.13;;
22213;SDS011;11276;43.566;27.824;2022-09-09T16:58:51;7.33;;;3.13;;
22213;SDS011;11276;43.566;27.824;2022-09-09T17:01:22;7.27;;;3.80;;
22213;SDS011;11276;43.566;27.824;2022-09-09T17:03:53;5.47;;;3.50;;
22213;SDS011;11276;43.566;27.824;2022-09-09T17:06:24;3.70;;;3.33;;
22213;SDS011;11276;43.566;27.824;2022-09-09T17:08:55;5.40;;;2.50;;
22213;SDS011;11276;43.566;27.824;2022-09-09T17:11:26;9.73;;;3.90;;
22213;SDS011;11276;43.566;27.824;2022-09-09T17:13:55;4.97;;;3.40;;
22213;SDS011;11276;43.566;27.824;2022-09-09T17:16:23;8.00;;;3.60;;
22213;SDS011;11276;43.566;27.824;2022-09-09T17:18:52;9.13;;;3.10;;
22213;SDS011;11276;43.566;27.824;2022-09-09T17:21:21;7.27;;;3.60;;
22213;SDS011;11276;43.566;27.824;2022-09-09T17:23:49;8.20;;;3.73;;
22213;SDS011;11276;43.566;27.824;2022-09-09T17:26:17;8.00;;;3.30;;
22213;SDS011;11276;43.566;27.824;2022-09-09T17:28:46;6.40;;;3.77;;
22213;SDS011;11276;43.566;27.824;2022-09-09T17:31:14;4.10;;;3.50;;
22213;SDS011;11276;43.566;27.824;2022-09-09T17:33:44;5.33;;;3.80;;
22213;SDS011;11276;43.566;27.824;2022-09-09T17:36:14;6.17;;;3.87;;
22213;SDS011;11276;43.566;27.824;2022-09-09T17:38:43;3.40;;;3.10;;
22213;SDS011;11276;43.566;27.824;2022-09-09T17:43:51;4.57;;;3.33;;
22213;SDS011;11276;43.566;27.824;2022-09-09T17:46:22;6.10;;;3.40;;
22213;SDS011;11276;43.566;27.824;2022-09-09T17:48:52;7.93;;;3.60;;
22213;SDS011;11276;43.566;27.824;2022-09-09T17:51:23;7.57;;;3.80;;
22213;SDS011;11276;43.566;27.824;2022-09-09T17:53:54;4.93;;;3.43;;